Saturday, February 24, 2018, 4:46 AM EST
Back to Local

KMUI, Muir Army Air Field / Indiantown

Location: Jonestown, PA, United States Lat: 40.433
Local Time: 4:46 AM EST ( 9:46 GMT) Lon: -76.567
Time Zone: US/Eastern Elev: 488 ft

Show me the last for .
Show Coded

Time T Td Feel RH Dir Speed Gust Alt SLP Vis Weather Sky Remarks
2018-02-24 03:56 41 41 - 100 - Calm - 30.17 30.19 0 FG VV000 None
2018-02-24 03:48 41 41 - 100 - Calm - 30.17 30.19 0 FG VV000 None
2018-02-24 03:44 41 41 - 100 - Calm - 30.17 30.19 0 FG VV001 None
2018-02-24 03:14 41 41 - 100 - Calm - 30.18 30.20 0 FG VV000 None
2018-02-24 03:06 41 41 - 100 - Calm - 30.18 30.20 0 FG VV001 None
2018-02-24 03:00 41 41 - 100 - Calm - 30.18 30.20 0 FG VV000 None
2018-02-24 02:56 41 41 - 100 - Calm - 30.18 30.20 0 FG VV001 None
2018-02-24 02:33 41 41 - 100 - Calm - 30.17 30.19 0 FG VV001 None
2018-02-24 02:09 41 41 - 100 - Calm - 30.18 30.20 0 FG VV001 None
2018-02-24 01:56 41 41 - 100 - Calm - 30.19 30.21 0 FG VV001 None
2018-02-24 01:48 41 41 - 100 - Calm - 30.19 30.21 0 FG VV001 None
2018-02-24 00:56 41 41 - 100 - Calm - 30.20 30.22 0 FG VV001 6-hr Min Temp (1am): 40.5°F
6-hr Max Temp (1am): 41.4°F
2018-02-23 23:56 41 41 38 100 220° 5 - 30.20 30.22 0 FG VV001 24-hr Min Temp (12am): 36.0°F
24-hr Max Temp (12am): 41.2°F
2018-02-23 22:56 41 41 38 100 210° 5 - 30.21 30.23 0 BR VV001 None
2018-02-23 22:14 41 41 39 100 220° 3 - 30.23 30.25 0 BR VV001 None
2018-02-23 21:56 41 41 36 100 210° 7 - 30.24 30.26 0 BR VV001 None
2018-02-23 21:18 41 41 38 100 200° 5 - 30.25 30.27 0 BR VV001 Pressure falling rapidly
2018-02-23 21:08 41 41 38 100 210° 5 - 30.27 30.29 1 BR VV001 None
2018-02-23 21:00 41 41 38 100 230° 5 - 30.27 30.29 1 BR OVC002 None
2018-02-23 20:56 41 41 38 100 230° 5 - 30.27 30.29 1 BR OVC002 None
2018-02-23 20:32 41 41 38 100 190° 5 - 30.27 30.29 1 BR OVC002 None
2018-02-23 20:04 41 41 39 100 190° 3 - 30.28 30.30 1 BR OVC003 None
2018-02-23 19:56 40 40 38 100 200° 3 - 30.28 30.30 2 BR OVC004 None
2018-02-23 18:56 41 41 39 100 200° 3 - 30.31 30.33 2 BR OVC005 6-hr Precip Total (7pm): 0.10"
6-hr Min Temp (7pm): 38.5°F
6-hr Max Temp (7pm): 41.2°F
2018-02-23 17:56 40 40 - 100 - Calm - 30.32 30.34 2 BR OVC005 None
2018-02-23 16:56 40 40 38 100 150° 3 - 30.34 30.36 2 BR OVC005 1-hr Precip Total: 0.04"
2018-02-23 16:38 39 39 - 100 - Calm - 30.34 30.36 2 BR OVC005 None
2018-02-23 15:56 40 40 - 100 - Calm - 30.37 30.39 3 -RA BR OVC005 1-hr Precip Total: 0.05"
6-hr Precip Total (4pm): 0.06"
2018-02-23 14:56 39 39 36 100 140° 5 - 30.38 30.40 1 -RA BR OVC006 1-hr Precip Total: 0.01"
2018-02-23 13:56 39 39 33 100 140° 8 - 30.40 30.42 2 -DZ BR BKN005 OVC009 None
2018-02-23 13:39 39 39 34 100 150° 7 - 30.41 30.43 2 -DZ BR BKN005 OVC009 Pressure falling rapidly
2018-02-23 13:16 39 39 36 100 140° 5 - 30.44 30.46 1 -DZ BR OVC004 None
2018-02-23 12:56 38 38 35 100 130° 5 - 30.45 30.47 1 -DZ BR OVC005 1-hr Precip Total: Trace
6-hr Precip Total (1pm): 0.03"
6-hr Min Temp (1pm): 36.5°F
6-hr Max Temp (1pm): 38.5°F
2018-02-23 11:56 38 38 34 100 140° 5 - 30.50 30.52 1 -DZ BR OVC005 1-hr Precip Total: Trace
2018-02-23 11:40 37 37 34 100 150° 5 - 30.51 30.53 1 -DZ BR OVC005 None
2018-02-23 11:24 37 37 35 100 130° 3 - 30.51 30.53 3 -DZ BR OVC006 None
2018-02-23 10:56 38 38 35 100 120° 3 - 30.53 30.55 3 -RA BR OVC005 1-hr Precip Total: Trace
2018-02-23 10:52 37 37 34 100 140° 5 - 30.53 30.55 3 -RA BR OVC005 None
2018-02-23 10:16 37 37 33 100 150° 6 - 30.54 30.56 2 -DZ BR FEW004 OVC008 None
2018-02-23 09:56 38 38 32 100 150° 8 - 30.56 30.58 5 BR FEW004 BKN008 OVC019 6-hr Precip Total (10am): 0.03"
2018-02-23 09:14 37 37 34 100 Variable 5 - 30.57 30.59 5 BR FEW004 BKN008 OVC013 None
2018-02-23 08:56 37 37 34 100 130° 5 - 30.57 30.59 4 -RA BR BKN007 OVC013 1-hr Precip Total: 0.01"
2018-02-23 08:23 37 37 - 100 - Calm - 30.58 30.60 4 -RA BR OVC007 None
2018-02-23 07:56 37 37 - 100 - Calm - 30.58 30.60 2 -RA BR OVC007 1-hr Precip Total: 0.02"
2018-02-23 07:06 37 37 - 100 - Calm - 30.59 30.61 2 -RA BR OVC007 None
2018-02-23 06:56 37 37 - 100 - Calm - 30.58 30.60 3 BR OVC007 1-hr Precip Total: 0.01"
6-hr Precip Total (7am): 0.04"
24-hr Precip Total (7am): 0.34"
6-hr Min Temp (7am): 36.0°F
6-hr Max Temp (7am): 36.7°F
2018-02-23 06:30 37 37 34 100 90° 5 - 30.57 30.59 5 BR OVC007 None
2018-02-23 06:12 37 37 35 100 90° 3 - 30.56 30.58 5 BR OVC006 None
2018-02-23 05:56 36 36 34 100 90° 3 - 30.56 30.58 4 BR OVC005 None
2018-02-23 05:52 36 36 31 100 100° 6 - 30.56 30.58 4 BR OVC005 None
2018-02-23 05:48 36 36 32 100 100° 5 - 30.56 30.58 3 BR OVC006 None
2018-02-23 05:46 36 36 32 100 110° 5 - 30.56 30.58 2 BR OVC006 Variable visibility
2018-02-23 05:36 36 36 32 100 70° 5 - 30.56 30.58 2 BR OVC006 None
2018-02-23 05:12 36 36 32 100 80° 5 - 30.57 30.59 2 BR OVC005 None
2018-02-23 05:02 36 36 32 100 70° 5 - 30.58 30.60 2 BR OVC005 None
2018-02-23 04:56 36 36 32 100 70° 5 - 30.58 30.60 3 BR OVC005 None

Support USWX by starting your Amazon purchase here.